Time;durP1;ratioP1;P1;durP2;ratioP2;P2;SDS_P1;SDS_P2;PMS_P1;PMS_P2;Temp;Humidity;BMP_temperature;BMP_pressure;BME280_temperature;BME280_humidity;BME280_pressure;Samples;Min_cycle;Max_cycle;Signal;HPM_P1;HPM_P2
2022/10/25 00:00:18;;;;;;;;;3.33;2.00;;;;;17.86;65.44;100977.81;2118447;27;46705;-70
2022/10/25 00:01:24;;;;;;;;;4.00;2.00;;;;;17.86;65.51;100969.75;2113109;27;46909;-69
2022/10/25 00:02:24;;;;;;;;;4.25;2.75;;;;;17.85;65.85;100982.31;2105437;27;46504;-69
2022/10/25 00:03:24;;;;;;;;;2.67;2.00;;;;;17.85;65.91;100970.69;2117182;27;46049;-70
2022/10/25 00:04:25;;;;;;;;;2.67;2.67;;;;;17.84;65.92;100977.00;2122564;27;44973;-70
2022/10/25 00:05:25;;;;;;;;;8.00;8.00;;;;;17.84;65.83;100975.19;2114851;27;46829;-69
2022/10/25 00:06:25;;;;;;;;;9.33;8.67;;;;;17.85;66.05;100971.56;2115141;27;46517;-70
2022/10/25 00:07:26;;;;;;;;;5.00;3.33;;;;;17.86;65.75;100977.81;2113735;27;46719;-69
2022/10/25 00:08:26;;;;;;;;;3.00;3.00;;;;;17.86;65.99;100984.03;2121551;27;46210;-69
2022/10/25 00:09:27;;;;;;;;;6.67;3.00;;;;;17.88;66.10;100982.16;2117128;27;47253;-70
2022/10/25 00:10:28;;;;;;;;;3.67;3.00;;;;;17.87;65.88;100980.41;2122163;27;46022;-70
2022/10/25 00:11:30;;;;;;;;;1.50;1.25;;;;;17.86;66.09;100984.03;2117807;27;46767;-70
2022/10/25 00:12:30;;;;;;;;;6.00;4.00;;;;;17.85;65.85;100976.94;2104758;28;46944;-70
2022/10/25 00:13:31;;;;;;;;;1.00;1.00;;;;;17.84;65.90;100977.88;2108082;27;46346;-70
2022/10/25 00:14:32;;;;;;;;;3.33;1.00;;;;;17.84;65.93;100985.06;2113708;27;46578;-70
2022/10/25 00:15:32;;;;;;;;;1.00;1.00;;;;;17.84;65.55;100977.88;2105000;27;45085;-71
2022/10/25 00:16:36;;;;;;;;;2.00;2.00;;;;;17.84;66.03;100980.56;2110540;27;46953;-69
2022/10/25 00:17:36;;;;;;;;;2.00;2.00;;;;;17.83;66.04;100984.19;2120863;27;46493;-69
2022/10/25 00:18:36;;;;;;;;;3.00;3.00;;;;;17.83;66.20;100978.84;2113450;27;45987;-70
2022/10/25 00:19:37;;;;;;;;;2.00;1.67;;;;;17.84;65.95;100979.69;2118292;27;46012;-70
2022/10/25 00:20:37;;;;;;;;;0.00;0.00;;;;;17.83;66.13;100983.34;2121996;27;45538;-70
2022/10/25 00:21:37;;;;;;;;;1.33;1.33;;;;;17.81;66.21;100979.84;2112115;27;46875;-70
2022/10/25 00:22:38;;;;;;;;;1.00;1.00;;;;;17.80;66.13;100980.81;2112777;27;46630;-70
2022/10/25 00:23:39;;;;;;;;;3.25;3.25;;;;;17.80;65.98;100984.34;2115293;27;45234;-69
2022/10/25 00:24:39;;;;;;;;;0.33;0.33;;;;;17.80;66.29;100972.75;2115933;27;45536;-71
2022/10/25 00:25:39;;;;;;;;;0.00;0.00;;;;;17.80;66.23;100978.13;2120878;27;46683;-69
2022/10/25 00:26:40;;;;;;;;;1.33;1.33;;;;;17.79;65.99;100982.63;2119680;27;46816;-70
2022/10/25 00:27:41;;;;;;;;;3.00;2.00;;;;;17.79;66.29;100974.56;2121026;27;46599;-70
2022/10/25 00:28:42;;;;;;;;;2.67;1.67;;;;;17.78;66.17;100979.97;2113670;27;46586;-70
2022/10/25 00:29:42;;;;;;;;;0.00;0.00;;;;;17.78;66.26;100971.91;2117537;27;45674;-70
2022/10/25 00:30:42;;;;;;;;;2.67;1.00;;;;;17.78;66.26;100980.84;2116597;27;47051;-70
2022/10/25 00:31:43;;;;;;;;;1.67;1.67;;;;;17.77;66.37;100973.75;2104412;27;46184;-70
2022/10/25 00:32:43;;;;;;;;;3.00;2.00;;;;;17.78;66.06;100971.91;2107579;27;47152;-70
2022/10/25 00:33:44;;;;;;;;;1.33;0.33;;;;;17.78;66.36;100974.59;2119112;27;46247;-70
2022/10/25 00:34:44;;;;;;;;;1.00;1.00;;;;;17.78;66.29;100977.28;2115932;27;46883;-69
2022/10/25 00:35:44;;;;;;;;;1.00;1.00;;;;;17.76;66.34;100980.06;2118139;27;46950;-70
2022/10/25 00:36:45;;;;;;;;;1.33;1.33;;;;;17.75;66.35;100975.63;2122106;27;46632;-70
2022/10/25 00:37:45;;;;;;;;;3.00;1.00;;;;;17.75;66.57;100977.44;2114030;27;44908;-69
2022/10/25 00:38:46;;;;;;;;;0.00;0.00;;;;;17.75;66.49;100980.13;2113190;27;46373;-68
2022/10/25 00:39:46;;;;;;;;;3.25;3.25;;;;;17.74;66.26;100975.69;2121608;27;45747;-70
2022/10/25 00:40:47;;;;;;;;;0.00;0.00;;;;;17.74;66.78;100981.06;2119025;27;46338;-70
2022/10/25 00:41:47;;;;;;;;;1.67;1.67;;;;;17.73;66.51;100980.19;2113807;27;45879;-70
2022/10/25 00:42:47;;;;;;;;;1.33;1.00;;;;;17.71;66.55;100982.09;2119822;27;47063;-69
2022/10/25 00:43:51;;;;;;;;;1.00;1.00;;;;;17.73;66.51;100982.88;2119229;27;46243;-70
2022/10/25 00:44:57;;;;;;;;;2.00;2.00;;;;;17.73;66.37;100976.66;2121924;27;46481;-70
2022/10/25 00:46:00;;;;;;;;;3.00;1.75;;;;;17.72;66.56;100978.47;2115926;27;46460;-70
2022/10/25 00:47:14;;;;;;;;;0.25;0.25;;;;;17.72;66.37;100974.91;2115374;27;48611;-70
2022/10/25 00:48:14;;;;;;;;;1.50;1.50;;;;;17.72;66.61;100985.66;2113516;27;46966;-69
2022/10/25 00:49:21;;;;;;;;;2.33;2.00;;;;;17.72;66.75;100974.91;2107071;27;46346;-70
2022/10/25 00:50:29;;;;;;;;;1.25;1.00;;;;;17.71;66.66;100975.84;2106250;27;45960;-69
2022/10/25 00:51:49;;;;;;;;;2.00;1.00;;;;;17.71;66.65;100984.78;2122050;27;45931;-70
2022/10/25 00:52:54;;;;;;;;;3.25;2.25;;;;;17.71;66.79;100982.09;2113373;27;46966;-69
2022/10/25 00:53:55;;;;;;;;;1.00;1.00;;;;;17.70;66.69;100983.03;2118165;27;47836;-71
2022/10/25 00:54:56;;;;;;;;;1.33;0.67;;;;;17.70;66.69;100985.72;2121524;27;46457;-70
2022/10/25 00:56:22;;;;;;;;;3.00;1.00;;;;;17.71;66.83;100984.78;2113406;27;46469;-71
2022/10/25 00:57:31;;;;;;;;;3.00;1.50;;;;;17.72;66.85;100988.34;2113239;27;46709;-70
2022/10/25 00:58:36;;;;;;;;;2.25;1.75;;;;;17.72;66.61;100989.19;2116783;27;46190;-69
2022/10/25 00:59:37;;;;;;;;;0.00;0.00;;;;;17.72;66.75;100985.66;2116878;27;46131;-69
2022/10/25 01:00:38;;;;;;;;;0.75;0.75;;;;;17.72;66.63;100986.50;2118463;27;46368;-69
2022/10/25 01:01:38;;;;;;;;;2.67;1.33;;;;;17.72;66.76;100989.19;2118861;27;46750;-68
2022/10/25 01:02:38;;;;;;;;;2.00;2.00;;;;;17.71;66.71;100991.97;2105443;27;47296;-70
2022/10/25 01:03:41;;;;;;;;;4.00;2.00;;;;;17.70;66.72;100988.41;2107222;27;45903;-69
2022/10/25 01:04:42;;;;;;;;;2.00;0.75;;;;;17.70;66.79;100992.91;2113711;27;46063;-69
2022/10/25 01:05:43;;;;;;;;;1.75;1.75;;;;;17.69;66.63;100992.03;2122323;27;45248;-68
2022/10/25 01:06:49;;;;;;;;;1.75;0.75;;;;;17.69;66.97;100993.84;2120898;27;45463;-71
2022/10/25 01:07:50;;;;;;;;;0.25;0.00;;;;;17.68;66.71;100990.25;2122229;27;46536;-70
2022/10/25 01:08:52;;;;;;;;;2.67;1.00;;;;;17.67;66.58;100988.53;2121398;27;47109;-69
2022/10/25 01:09:53;;;;;;;;;4.00;3.00;;;;;17.67;66.73;100988.53;2117899;27;46616;-70
2022/10/25 01:10:53;;;;;;;;;3.00;3.00;;;;;17.66;66.73;100978.72;2117047;27;45648;-69
2022/10/25 01:11:54;;;;;;;;;1.33;0.33;;;;;17.66;66.70;100984.09;2123810;27;46904;-70
2022/10/25 01:12:54;;;;;;;;;1.00;1.00;;;;;17.65;66.90;100985.88;2120574;27;46653;-69
2022/10/25 01:13:56;;;;;;;;;1.67;1.33;;;;;17.64;66.62;100985.97;2121004;27;45801;-69
2022/10/25 01:14:56;;;;;;;;;0.00;0.00;;;;;17.63;66.81;100987.78;2122587;27;45744;-70
2022/10/25 01:16:23;;;;;;;;;2.00;2.00;;;;;17.62;66.98;100985.16;2122167;27;46343;-68
2022/10/25 01:17:50;;;;;;;;;1.50;1.00;;;;;17.61;66.87;100984.28;2113926;27;46399;-70
2022/10/25 01:19:04;;;;;;;;;1.00;0.50;;;;;17.59;66.77;100990.69;2113309;27;46556;-70
2022/10/25 01:20:10;;;;;;;;;1.25;1.00;;;;;17.58;66.95;100983.56;2118338;27;46359;-69
2022/10/25 01:21:35;;;;;;;;;0.50;0.50;;;;;17.55;67.09;100987.28;2112468;27;45713;-71
2022/10/25 01:22:52;;;;;;;;;0.75;0.75;;;;;17.54;67.03;100985.53;2113748;27;46815;-70
2022/10/25 01:24:25;;;;;;;;;2.00;2.00;;;;;17.53;67.21;100983.81;2112945;27;46608;-70
2022/10/25 01:25:42;;;;;;;;;1.25;1.25;;;;;17.53;67.40;100989.16;2113358;27;46056;-70
2022/10/25 01:27:21;;;;;;;;;2.25;1.00;;;;;17.53;67.16;100982.91;2113041;27;46553;-69
2022/10/25 01:28:55;;;;;;;;;1.00;1.00;;;;;17.53;67.22;100991.84;2113194;27;46061;-70
2022/10/25 01:30:05;;;;;;;;;0.75;0.75;;;;;17.56;67.29;100993.50;2119519;27;46442;-70
2022/10/25 01:31:06;;;;;;;;;4.25;2.25;;;;;17.55;67.13;100998.00;2118653;27;46954;-70
2022/10/25 01:32:12;;;;;;;;;2.00;2.00;;;;;17.54;67.29;100987.34;2114109;27;46221;-70
2022/10/25 01:33:30;;;;;;;;;4.75;2.25;;;;;17.54;67.47;100993.59;2116205;27;45701;-69
2022/10/25 01:35:02;;;;;;;;;1.50;1.00;;;;;17.55;67.25;100992.66;2113285;27;47239;-70
2022/10/25 01:36:17;;;;;;;;;1.00;0.50;;;;;17.55;67.41;100994.47;2076560;28;46861;-70
2022/10/25 01:37:40;;;;;;;;;2.50;1.00;;;;;17.55;67.22;100987.28;2078379;28;46809;-70
2022/10/25 01:39:02;;;;;;;;;2.00;2.00;;;;;17.57;67.37;100987.22;2070393;28;46610;-70
2022/10/25 01:40:07;;;;;;;;;2.50;2.00;;;;;17.57;67.52;100984.53;2070541;28;46797;-71
2022/10/25 01:41:21;;;;;;;;;2.50;1.75;;;;;17.57;67.44;100985.38;2068334;28;46728;-70
2022/10/25 01:42:31;;;;;;;;;2.00;2.00;;;;;17.58;67.15;100989.81;2067882;28;46509;-70
2022/10/25 01:43:46;;;;;;;;;1.75;1.50;;;;;17.59;67.26;100990.69;2066091;28;45728;-69
2022/10/25 01:45:05;;;;;;;;;1.50;1.50;;;;;17.59;67.08;100977.25;2070569;28;46722;-70
2022/10/25 01:46:06;;;;;;;;;3.00;1.75;;;;;17.59;67.27;100974.56;2070211;28;46940;-70
2022/10/25 01:47:19;;;;;;;;;2.33;2.00;;;;;17.60;67.22;100982.56;2068787;28;46209;-69
2022/10/25 01:48:32;;;;;;;;;3.25;3.25;;;;;17.59;67.15;100985.31;2062504;28;46630;-69
2022/10/25 01:49:43;;;;;;;;;0.50;0.00;;;;;17.59;67.23;100988.88;2068016;28;46821;-70
2022/10/25 01:50:46;;;;;;;;;1.75;1.75;;;;;17.59;67.16;100988.88;2066837;28;46887;-70
2022/10/25 01:51:46;;;;;;;;;3.50;2.00;;;;;17.59;67.33;100986.19;2069815;28;48376;-69
2022/10/25 01:52:47;;;;;;;;;2.00;2.00;;;;;17.60;67.15;100990.59;2064566;28;47208;-70
2022/10/25 01:53:49;;;;;;;;;4.00;3.00;;;;;17.61;66.94;100989.66;2068327;28;46781;-69
2022/10/25 01:54:50;;;;;;;;;3.00;1.75;;;;;17.62;67.19;100990.53;2070201;28;46583;-71
2022/10/25 01:55:56;;;;;;;;;2.00;0.00;;;;;17.62;67.22;100990.53;2070081;28;46539;-70
2022/10/25 01:57:12;;;;;;;;;3.00;1.50;;;;;17.62;66.78;100987.84;2067467;28;46718;-70
2022/10/25 01:58:33;;;;;;;;;1.00;1.00;;;;;17.61;67.06;100983.44;2069203;28;46821;-69
2022/10/25 01:59:45;;;;;;;;;1.00;1.00;;;;;17.60;67.12;100989.75;2066380;28;46479;-69
2022/10/25 02:01:00;;;;;;;;;2.25;1.25;;;;;17.59;67.06;100983.50;2062117;28;46597;-70
2022/10/25 02:02:35;;;;;;;;;4.25;3.00;;;;;17.59;66.86;100996.06;2070180;28;47022;-70
2022/10/25 02:03:47;;;;;;;;;1.25;0.50;;;;;17.55;66.99;100987.28;2062341;28;46591;-70
2022/10/25 02:05:09;;;;;;;;;3.50;2.25;;;;;17.53;66.92;100988.25;2067553;28;46794;-70
2022/10/25 02:06:37;;;;;;;;;2.50;1.50;;;;;17.52;66.98;100984.72;2069973;28;46981;-70
2022/10/25 02:07:45;;;;;;;;;1.50;1.00;;;;;17.51;66.93;100982.97;2070223;28;45759;-70
2022/10/25 02:09:11;;;;;;;;;1.00;1.00;;;;;17.52;67.07;100983.84;2064167;28;46631;-68
2022/10/25 02:10:18;;;;;;;;;2.75;2.00;;;;;17.51;66.94;100980.28;2069695;28;46684;-70
2022/10/25 02:11:25;;;;;;;;;0.25;0.25;;;;;17.50;66.98;100986.59;2069905;28;46555;-70
2022/10/25 02:12:31;;;;;;;;;1.00;1.00;;;;;17.50;67.05;100983.06;2070122;28;46552;-70
2022/10/25 02:13:43;;;;;;;;;1.00;1.00;;;;;17.50;66.99;100983.06;2075777;28;45859;-69
2022/10/25 02:15:00;;;;;;;;;0.25;0.25;;;;;17.49;66.97;100982.19;2087081;28;46630;-69
2022/10/25 02:16:06;;;;;;;;;2.75;0.75;;;;;17.49;66.79;100982.19;2087263;27;45604;-70
2022/10/25 02:17:13;;;;;;;;;0.00;0.00;;;;;17.51;66.35;100988.34;2112973;27;47176;-70
2022/10/25 02:18:22;;;;;;;;;0.00;0.00;;;;;17.51;66.61;100990.16;2112998;27;46481;-69
2022/10/25 02:19:29;;;;;;;;;1.00;1.00;;;;;17.50;66.84;100983.91;2114584;27;45250;-70
2022/10/25 02:20:33;;;;;;;;;1.75;1.75;;;;;17.51;66.50;100992.84;2112845;27;46461;-70
2022/10/25 02:21:35;;;;;;;;;1.00;0.75;;;;;17.50;66.82;100989.28;2112589;27;47172;-69
2022/10/25 02:22:37;;;;;;;;;0.75;0.75;;;;;17.49;66.55;100992.91;2114968;27;45138;-70
2022/10/25 02:23:39;;;;;;;;;0.75;0.50;;;;;17.49;66.67;101000.97;2114681;27;46438;-70
2022/10/25 02:24:43;;;;;;;;;1.25;0.75;;;;;17.48;66.62;100993.84;2113131;27;45605;-69
2022/10/25 02:25:45;;;;;;;;;1.00;1.00;;;;;17.48;66.82;100993.84;2113829;27;47047;-69
2022/10/25 02:26:48;;;;;;;;;1.00;1.00;;;;;17.48;66.65;101001.03;2118928;27;46222;-69
2022/10/25 02:27:52;;;;;;;;;1.75;1.75;;;;;17.47;66.70;100997.47;2119294;27;46346;-69
2022/10/25 02:28:53;;;;;;;;;1.75;1.00;;;;;17.47;66.87;100992.13;2113052;27;47023;-70
2022/10/25 02:29:55;;;;;;;;;0.50;0.50;;;;;17.47;66.62;100994.78;2115060;27;46727;-67
2022/10/25 02:30:57;;;;;;;;;1.00;1.00;;;;;17.46;66.95;100994.88;2115706;27;46294;-71
2022/10/25 02:31:58;;;;;;;;;1.00;1.00;;;;;17.46;66.41;100998.44;2112895;27;46790;-69
2022/10/25 02:32:59;;;;;;;;;0.67;0.00;;;;;17.48;66.93;101001.03;2115495;27;46744;-69
2022/10/25 02:34:00;;;;;;;;;0.00;0.00;;;;;17.46;66.76;100998.44;2108960;27;46476;-69
2022/10/25 02:35:01;;;;;;;;;1.25;1.25;;;;;17.46;66.82;100995.75;2112133;27;46266;-68
2022/10/25 02:36:17;;;;;;;;;3.00;2.33;;;;;17.47;66.56;101001.97;2116111;27;46192;-68
2022/10/25 02:37:18;;;;;;;;;1.00;0.00;;;;;17.46;66.64;100998.44;2098487;28;46417;-69
2022/10/25 02:38:18;;;;;;;;;3.67;3.67;;;;;17.46;66.74;100997.56;2096053;28;47094;-70
2022/10/25 02:39:20;;;;;;;;;1.00;0.33;;;;;17.46;66.97;100994.88;2099488;28;46248;-69
2022/10/25 02:40:21;;;;;;;;;1.25;1.25;;;;;17.46;66.55;100995.75;2103518;28;46566;-68
2022/10/25 02:41:22;;;;;;;;;1.33;1.33;;;;;17.45;66.67;100994.00;2103828;28;45581;-69
2022/10/25 02:42:23;;;;;;;;;1.75;1.75;;;;;17.46;66.81;100994.88;2101643;27;46000;-70
2022/10/25 02:43:23;;;;;;;;;1.00;1.00;;;;;17.45;66.54;100995.81;2097691;28;46805;-70
2022/10/25 02:44:23;;;;;;;;;0.67;0.67;;;;;17.45;66.71;100999.38;2095579;28;46253;-69
2022/10/25 02:45:24;;;;;;;;;1.00;0.00;;;;;17.44;66.95;100996.75;2098537;28;46522;-69
2022/10/25 02:46:24;;;;;;;;;3.33;0.67;;;;;17.42;66.69;100996.84;2104355;28;46268;-69
2022/10/25 02:47:24;;;;;;;;;3.00;2.00;;;;;17.41;67.02;100995.09;2099632;27;46640;-70
2022/10/25 02:48:25;;;;;;;;;2.00;2.00;;;;;17.39;66.89;100999.63;2097237;28;48167;-70
2022/10/25 02:49:25;;;;;;;;;2.00;1.67;;;;;17.40;67.05;100997.81;2104347;28;45715;-70
2022/10/25 02:50:25;;;;;;;;;0.33;0.00;;;;;17.38;66.77;101003.25;2101734;28;45776;-69
2022/10/25 02:51:26;;;;;;;;;0.00;0.00;;;;;17.37;66.84;100993.47;2095711;28;46671;-70
2022/10/25 02:52:26;;;;;;;;;0.00;0.00;;;;;17.38;66.84;100999.69;2101354;28;47014;-69
2022/10/25 02:53:27;;;;;;;;;1.00;1.00;;;;;17.38;67.23;101002.38;2100393;28;46300;-69
2022/10/25 02:54:28;;;;;;;;;2.00;2.00;;;;;17.36;67.32;101000.66;2095862;28;45429;-69
2022/10/25 02:55:28;;;;;;;;;0.00;0.00;;;;;17.37;67.05;100993.47;2100088;28;46555;-69
2022/10/25 02:56:28;;;;;;;;;1.33;1.33;;;;;17.38;66.93;100994.34;2104162;28;46447;-70
2022/10/25 02:57:33;;;;;;;;;4.00;1.00;;;;;17.38;66.89;100992.53;2095953;27;46436;-69
2022/10/25 02:58:35;;;;;;;;;1.25;1.25;;;;;17.38;67.15;100992.53;2096469;28;46206;-71
2022/10/25 02:59:36;;;;;;;;;1.00;0.25;;;;;17.38;66.95;100988.97;2096112;28;46375;-71
2022/10/25 03:00:36;;;;;;;;;2.00;1.00;;;;;17.38;67.27;100997.03;2098920;28;45679;-70
2022/10/25 03:01:36;;;;;;;;;1.67;1.67;;;;;17.39;67.12;100996.06;2096707;27;46350;-69
2022/10/25 03:02:37;;;;;;;;;0.33;0.33;;;;;17.38;67.27;100989.84;2095617;28;46217;-69
2022/10/25 03:03:37;;;;;;;;;1.00;1.00;;;;;17.39;67.28;100985.34;2096476;28;46358;-68
2022/10/25 03:04:37;;;;;;;;;1.33;1.00;;;;;17.39;67.00;100985.34;2095844;28;46326;-69
2022/10/25 03:05:38;;;;;;;;;0.00;0.00;;;;;17.39;67.06;100980.84;2096459;28;46226;-69
2022/10/25 03:06:38;;;;;;;;;1.00;1.00;;;;;17.40;67.04;100993.31;2099494;28;46728;-70
2022/10/25 03:07:38;;;;;;;;;1.00;1.00;;;;;17.40;67.11;100990.63;2095558;28;46495;-69
2022/10/25 03:08:40;;;;;;;;;2.00;2.00;;;;;17.42;67.05;100995.97;2096462;28;46648;-70
2022/10/25 03:09:40;;;;;;;;;3.00;1.00;;;;;17.43;67.18;100998.56;2095361;28;46665;-69
2022/10/25 03:10:40;;;;;;;;;4.00;2.00;;;;;17.43;67.06;100989.66;2095869;28;45890;-71
2022/10/25 03:11:41;;;;;;;;;2.67;2.33;;;;;17.44;66.83;100989.59;2096893;28;45713;-71
2022/10/25 03:12:41;;;;;;;;;3.00;3.00;;;;;17.45;66.98;100995.81;2096101;28;45506;-72
2022/10/25 03:13:41;;;;;;;;;2.33;2.00;;;;;17.45;66.98;100998.50;2095159;28;45802;-70
2022/10/25 03:14:42;;;;;;;;;2.00;1.00;;;;;17.47;66.54;100992.13;2095168;28;45791;-70
2022/10/25 03:15:43;;;;;;;;;1.00;1.00;;;;;17.49;67.00;101003.66;2095999;28;46639;-71
2022/10/25 03:16:44;;;;;;;;;1.00;0.75;;;;;17.50;66.69;100997.34;2101752;28;46501;-70
2022/10/25 03:17:44;;;;;;;;;1.67;1.33;;;;;17.51;66.91;101001.75;2103059;27;47096;-70
2022/10/25 03:18:44;;;;;;;;;0.00;0.00;;;;;17.52;66.76;101005.31;2104245;28;45781;-71
2022/10/25 03:19:45;;;;;;;;;0.00;0.00;;;;;17.52;66.56;100998.13;2092247;28;46253;-71
2022/10/25 03:20:45;;;;;;;;;0.00;0.00;;;;;17.53;66.59;101005.25;2094291;28;46582;-69
2022/10/25 03:21:45;;;;;;;;;3.33;1.33;;;;;17.56;66.49;101002.44;2100845;28;45955;-70
2022/10/25 03:22:45;;;;;;;;;0.33;0.00;;;;;17.56;66.43;100999.75;2100507;28;46803;-71
2022/10/25 03:23:46;;;;;;;;;0.00;0.00;;;;;17.57;66.50;101003.31;2100686;28;45411;-70
2022/10/25 03:24:46;;;;;;;;;1.33;0.00;;;;;17.58;66.51;100994.31;2098055;28;46686;-71
2022/10/25 03:25:50;;;;;;;;;0.00;0.00;;;;;17.60;66.63;101003.16;2095752;28;47022;-69
2022/10/25 03:26:51;;;;;;;;;0.00;0.00;;;;;17.60;66.41;100998.66;2096897;28;46400;-70
2022/10/25 03:27:51;;;;;;;;;0.00;0.00;;;;;17.60;66.54;100998.66;2097387;28;46061;-70
2022/10/25 03:28:51;;;;;;;;;0.00;0.00;;;;;17.61;66.34;101002.22;2104866;28;46803;-70
2022/10/25 03:29:52;;;;;;;;;2.00;1.00;;;;;17.62;66.43;101009.31;2103927;28;46370;-71
2022/10/25 03:30:53;;;;;;;;;1.00;1.00;;;;;17.62;66.33;101004.81;2097447;28;45414;-70
2022/10/25 03:31:53;;;;;;;;;1.25;1.25;;;;;17.63;66.41;101005.69;2105024;28;46601;-70
2022/10/25 03:32:54;;;;;;;;;0.00;0.00;;;;;17.64;66.12;101010.13;2108852;28;45497;-70
2022/10/25 03:33:54;;;;;;;;;1.00;0.00;;;;;17.64;66.37;101013.66;2107906;27;46407;-70
2022/10/25 03:34:55;;;;;;;;;1.00;0.00;;;;;17.67;66.70;101009.13;2106882;28;46189;-70
2022/10/25 03:35:55;;;;;;;;;1.33;1.33;;;;;17.67;66.29;101007.31;2106474;28;44971;-68
2022/10/25 03:36:57;;;;;;;;;2.00;1.00;;;;;17.68;66.47;101014.41;2117524;27;46110;-70
2022/10/25 03:37:57;;;;;;;;;1.00;1.00;;;;;17.68;66.29;101018.91;2115208;27;46100;-70
2022/10/25 03:38:58;;;;;;;;;2.33;2.33;;;;;17.69;66.41;101020.69;2118275;27;45407;-70
2022/10/25 03:39:58;;;;;;;;;0.33;0.33;;;;;17.70;66.46;101020.63;2117563;27;46664;-70
2022/10/25 03:40:58;;;;;;;;;0.00;0.00;;;;;17.70;66.40;101017.06;2120466;27;46633;-71
2022/10/25 03:41:59;;;;;;;;;2.00;0.00;;;;;17.71;66.25;101024.16;2114988;27;45742;-71
2022/10/25 03:42:59;;;;;;;;;1.00;0.00;;;;;17.71;66.39;101022.34;2117667;27;46154;-70
2022/10/25 03:43:59;;;;;;;;;0.00;0.00;;;;;17.72;66.56;101028.59;2116889;27;45093;-70
2022/10/25 03:45:00;;;;;;;;;0.67;0.67;;;;;17.72;66.67;101018.72;2116135;27;45912;-71
2022/10/25 03:46:00;;;;;;;;;1.00;0.33;;;;;17.75;66.23;101023.94;2117270;27;45240;-71
2022/10/25 03:47:00;;;;;;;;;0.00;0.00;;;;;17.77;66.43;101026.56;2114302;27;46566;-70
2022/10/25 03:48:00;;;;;;;;;1.67;1.00;;;;;17.77;66.37;101026.56;2116422;27;46662;-70
2022/10/25 03:49:01;;;;;;;;;1.33;1.00;;;;;17.77;66.32;101029.25;2115437;27;46293;-69
2022/10/25 03:50:01;;;;;;;;;0.00;0.00;;;;;17.77;66.29;101026.56;2114141;27;46618;-71
2022/10/25 03:51:02;;;;;;;;;4.67;3.00;;;;;17.78;66.37;101030.97;2114615;27;46157;-70
2022/10/25 03:52:04;;;;;;;;;2.00;2.00;;;;;17.78;66.54;101023.78;2113840;27;46457;-70
2022/10/25 03:53:05;;;;;;;;;2.25;1.00;;;;;17.79;66.44;101036.31;2096115;28;46639;-70
2022/10/25 03:54:06;;;;;;;;;2.00;0.33;;;;;17.80;66.54;101030.00;2103902;27;46425;-71
2022/10/25 03:55:06;;;;;;;;;1.33;0.67;;;;;17.80;66.43;101026.44;2122671;27;46250;-70
2022/10/25 03:56:07;;;;;;;;;1.00;1.00;;;;;17.81;66.35;101034.41;2111610;27;46528;-70
2022/10/25 03:57:07;;;;;;;;;0.67;0.00;;;;;17.81;66.26;101026.34;2112515;27;46879;-71
2022/10/25 03:58:08;;;;;;;;;0.67;0.67;;;;;17.81;66.43;101034.41;2113844;27;46332;-70
2022/10/25 03:59:08;;;;;;;;;1.67;1.67;;;;;17.81;66.29;101026.34;2113720;27;46528;-72
2022/10/25 04:00:09;;;;;;;;;2.00;1.00;;;;;17.81;66.25;101028.19;2113767;27;46311;-70
2022/10/25 04:01:09;;;;;;;;;2.00;2.00;;;;;17.80;66.46;101032.69;2117362;27;46395;-71
2022/10/25 04:02:11;;;;;;;;;1.00;1.00;;;;;17.81;66.46;101031.72;2119923;27;46283;-70
2022/10/25 04:03:11;;;;;;;;;0.75;0.75;;;;;17.81;66.34;101029.03;2120166;27;46732;-71
2022/10/25 04:04:11;;;;;;;;;2.00;2.00;;;;;17.82;66.42;101029.91;2116457;27;46542;-70
2022/10/25 04:05:12;;;;;;;;;0.33;0.33;;;;;17.81;66.62;101029.03;2121993;27;45777;-71
2022/10/25 04:06:12;;;;;;;;;5.67;5.67;;;;;17.80;66.42;101023.75;2113927;27;46215;-71
2022/10/25 04:07:12;;;;;;;;;5.00;4.00;;;;;17.80;66.45;101021.06;2117759;27;47282;-68
2022/10/25 04:08:12;;;;;;;;;4.33;4.33;;;;;17.78;66.41;101025.59;2122363;27;46919;-72
2022/10/25 04:09:13;;;;;;;;;2.33;1.00;;;;;17.78;66.47;101028.28;2114232;27;46623;-70
2022/10/25 04:10:14;;;;;;;;;1.00;1.00;;;;;17.77;66.45;101026.56;2119586;27;45765;-70
2022/10/25 04:11:14;;;;;;;;;1.00;1.00;;;;;17.77;66.42;101026.56;2116275;27;46128;-71
2022/10/25 04:12:14;;;;;;;;;1.00;1.00;;;;;17.77;66.57;101031.91;2116586;27;46673;-70
2022/10/25 04:13:15;;;;;;;;;1.00;1.00;;;;;17.78;66.30;101030.97;2116579;27;46625;-72
2022/10/25 04:14:15;;;;;;;;;1.00;1.00;;;;;17.77;66.32;101030.09;2122499;27;45533;-71
2022/10/25 04:15:16;;;;;;;;;2.33;1.67;;;;;17.77;66.43;101031.91;2115226;27;45447;-71
2022/10/25 04:16:16;;;;;;;;;3.00;2.00;;;;;17.78;66.79;101028.28;2114763;27;46589;-71
2022/10/25 04:17:17;;;;;;;;;2.67;2.67;;;;;17.79;66.46;101038.13;2114482;27;46296;-70
2022/10/25 04:18:17;;;;;;;;;3.00;2.00;;;;;17.81;66.75;101034.41;2115706;27;46476;-71
2022/10/25 04:19:17;;;;;;;;;0.67;0.67;;;;;17.83;66.52;101035.22;2113323;27;46551;-70
2022/10/25 04:20:18;;;;;;;;;2.00;2.00;;;;;17.84;66.58;101033.41;2115727;27;45223;-69
2022/10/25 04:21:20;;;;;;;;;3.00;2.00;;;;;17.84;66.47;101034.25;2114662;27;45784;-69
2022/10/25 04:22:20;;;;;;;;;1.50;1.50;;;;;17.84;66.33;101031.59;2122487;27;46079;-68
2022/10/25 04:23:20;;;;;;;;;1.00;1.00;;;;;17.84;66.38;101036.94;2117759;27;46453;-70
2022/10/25 04:24:21;;;;;;;;;2.00;2.00;;;;;17.85;66.13;101037.81;2111419;27;47502;-70
2022/10/25 04:25:24;;;;;;;;;2.67;1.00;;;;;17.85;66.43;101030.63;2110623;27;46617;-70
2022/10/25 04:26:24;;;;;;;;;3.00;2.00;;;;;17.87;66.22;101038.63;2118334;27;46646;-70
2022/10/25 04:27:24;;;;;;;;;2.00;2.00;;;;;17.88;66.43;101029.63;2122038;27;46577;-70
2022/10/25 04:28:25;;;;;;;;;2.00;2.00;;;;;17.87;66.63;101036.78;2112876;27;46856;-68
2022/10/25 04:29:25;;;;;;;;;0.67;0.00;;;;;17.86;66.36;101027.00;2107663;27;46829;-69
2022/10/25 04:30:26;;;;;;;;;2.00;1.00;;;;;17.86;66.55;101028.81;2118837;27;44957;-70
2022/10/25 04:31:26;;;;;;;;;2.00;2.00;;;;;17.86;66.12;101031.50;2122093;27;46481;-69
2022/10/25 04:32:26;;;;;;;;;0.00;0.00;;;;;17.85;66.37;101025.25;2115173;27;46598;-70
2022/10/25 04:33:27;;;;;;;;;2.00;2.00;;;;;17.85;66.42;101030.63;2117238;27;46789;-70
2022/10/25 04:34:27;;;;;;;;;2.33;2.00;;;;;17.86;66.05;101027.00;2118789;27;48132;-69
2022/10/25 04:35:27;;;;;;;;;3.00;2.67;;;;;17.86;66.32;101031.50;2118553;27;46502;-70
2022/10/25 04:36:29;;;;;;;;;0.33;0.33;;;;;17.87;66.29;101030.56;2121533;27;46230;-69
2022/10/25 04:37:29;;;;;;;;;2.00;1.25;;;;;17.86;66.32;101034.19;2121897;27;46782;-70
2022/10/25 04:38:29;;;;;;;;;2.00;2.00;;;;;17.87;66.21;101041.28;2118531;27;46616;-70
2022/10/25 04:39:30;;;;;;;;;1.67;1.00;;;;;17.87;66.37;101035.94;2110254;27;46677;-70
2022/10/25 04:40:30;;;;;;;;;0.00;0.00;;;;;17.85;66.21;101037.81;2107343;27;46663;-69
2022/10/25 04:41:31;;;;;;;;;2.00;2.00;;;;;17.86;66.40;101039.56;2112043;27;47080;-70
2022/10/25 04:42:33;;;;;;;;;3.00;2.00;;;;;17.84;66.44;101036.09;2112905;27;46481;-69
2022/10/25 04:43:33;;;;;;;;;3.50;3.50;;;;;17.84;66.50;101036.09;2115591;27;45561;-70
2022/10/25 04:44:33;;;;;;;;;2.00;2.00;;;;;17.84;66.67;101030.72;2104290;27;46573;-70
2022/10/25 04:45:34;;;;;;;;;2.00;2.00;;;;;17.84;66.39;101045.00;2105781;27;44994;-70
2022/10/25 04:46:34;;;;;;;;;5.00;3.00;;;;;17.83;66.26;101037.03;2122021;27;45290;-70
2022/10/25 04:47:34;;;;;;;;;2.00;2.00;;;;;17.83;66.40;101037.91;2122005;27;46706;-70
2022/10/25 04:48:36;;;;;;;;;3.00;2.67;;;;;17.83;66.52;101037.03;2121390;27;45439;-70
2022/10/25 04:49:37;;;;;;;;;2.00;2.00;;;;;17.82;66.41;101040.66;2118974;27;46744;-69
2022/10/25 04:50:37;;;;;;;;;2.00;2.00;;;;;17.82;66.42;101037.97;2113235;27;46593;-70
2022/10/25 04:51:38;;;;;;;;;3.67;3.00;;;;;17.80;66.56;101035.34;2118143;27;45701;-69
2022/10/25 04:52:38;;;;;;;;;3.00;3.00;;;;;17.80;66.08;101040.72;2109435;27;46678;-70
2022/10/25 04:53:39;;;;;;;;;2.67;2.67;;;;;17.79;66.52;101038.13;2116290;27;46700;-69
2022/10/25 04:54:39;;;;;;;;;3.00;3.00;;;;;17.78;66.56;101039.91;2117912;27;46611;-69
2022/10/25 04:55:39;;;;;;;;;4.00;3.00;;;;;17.78;66.61;101033.66;2121366;27;46526;-70